createdAt,value
2019-01-14T00:01:34.530Z,7.40
2019-01-14T00:04:03.869Z,7.40
2019-01-14T00:06:33.394Z,7.50
2019-01-14T00:09:04.434Z,7.50
2019-01-14T00:11:33.798Z,7.50
2019-01-14T00:14:03.109Z,7.50
2019-01-14T00:16:32.456Z,7.50
2019-01-14T00:19:01.840Z,7.50
2019-01-14T00:21:31.193Z,7.50
2019-01-14T00:24:00.510Z,7.50
2019-01-14T00:26:30.221Z,7.60
2019-01-14T00:28:59.594Z,7.60
2019-01-14T00:31:29.056Z,7.60
2019-01-14T00:33:58.549Z,7.60
2019-01-14T00:36:28.134Z,7.70
2019-01-14T00:38:57.481Z,7.70
2019-01-14T00:52:03.444Z,7.70
2019-01-14T00:54:33.324Z,7.70
2019-01-14T00:57:03.913Z,7.60
2019-01-14T00:59:33.248Z,7.60
2019-01-14T01:02:02.691Z,7.60
2019-01-14T01:04:32.029Z,7.60
2019-01-14T01:07:01.577Z,7.60
2019-01-14T01:09:30.985Z,7.60
2019-01-14T01:12:00.431Z,7.60
2019-01-14T01:14:29.875Z,7.70
2019-01-14T01:16:59.233Z,7.70
2019-01-14T01:19:28.666Z,7.70
2019-01-14T01:21:58.012Z,7.70
2019-01-14T01:24:27.424Z,7.70
2019-01-14T01:26:56.856Z,7.60
2019-01-14T01:29:26.296Z,7.60
2019-01-14T01:31:55.644Z,7.60
2019-01-14T01:34:24.961Z,7.50
2019-01-14T01:36:54.346Z,7.40
2019-01-14T01:39:23.742Z,7.40
2019-01-14T01:41:53.170Z,7.40
2019-01-14T01:44:22.578Z,7.40
2019-01-14T01:46:51.949Z,7.30
2019-01-14T01:49:21.373Z,7.40
2019-01-14T01:51:50.820Z,7.40
2019-01-14T01:54:20.203Z,7.40
2019-01-14T01:56:49.644Z,7.30
2019-01-14T01:59:19.017Z,7.30
2019-01-14T02:01:48.402Z,7.30
2019-01-14T02:04:17.767Z,7.30
2019-01-14T02:06:47.198Z,7.30
2019-01-14T02:09:16.629Z,7.30
2019-01-14T02:11:46.020Z,7.30
2019-01-14T02:14:15.427Z,7.30
2019-01-14T02:16:45.246Z,7.30
2019-01-14T02:19:14.664Z,7.20
2019-01-14T02:21:44.032Z,7.30
2019-01-14T02:24:13.438Z,7.20
2019-01-14T02:26:42.814Z,7.20
2019-01-14T02:29:12.106Z,7.20
2019-01-14T02:31:41.412Z,7.20
2019-01-14T02:34:10.812Z,7.20
2019-01-14T02:36:48.126Z,7.20
2019-01-14T02:39:11.218Z,7.20
2019-01-14T02:41:40.584Z,7.20
2019-01-14T02:44:10.012Z,7.20
2019-01-14T02:46:39.468Z,7.20
2019-01-14T02:49:08.885Z,7.20
2019-01-14T02:51:38.325Z,7.10
2019-01-14T02:54:07.679Z,7.10
2019-01-14T02:56:37.102Z,7.10
2019-01-14T02:59:06.501Z,7.10
2019-01-14T03:01:35.894Z,7.10
2019-01-14T03:04:05.268Z,7.10
2019-01-14T03:06:34.542Z,7.10
2019-01-14T03:09:04.546Z,7.10
2019-01-14T03:11:33.974Z,7.10
2019-01-14T03:14:03.304Z,7.10
2019-01-14T03:16:32.643Z,7.00
2019-01-14T03:19:02.086Z,7.00
2019-01-14T03:21:31.465Z,7.00
2019-01-14T03:24:00.820Z,6.90
2019-01-14T03:26:30.232Z,6.90
2019-01-14T03:28:59.637Z,6.90
2019-01-14T03:31:28.976Z,6.90
2019-01-14T03:33:58.347Z,6.90
2019-01-14T03:36:27.757Z,6.90
2019-01-14T03:38:58.094Z,7.00
2019-01-14T03:41:27.705Z,7.00
2019-01-14T03:43:57.062Z,7.00
2019-01-14T03:46:26.449Z,7.00
2019-01-14T03:48:55.844Z,7.00
2019-01-14T03:51:25.204Z,7.10
2019-01-14T03:53:54.580Z,7.00
2019-01-14T03:56:23.912Z,7.00
2019-01-14T03:58:53.314Z,7.00
2019-01-14T04:01:22.685Z,7.00
2019-01-14T04:03:52.059Z,7.00
2019-01-14T04:06:21.468Z,7.00
2019-01-14T04:08:50.831Z,7.00
2019-01-14T04:11:20.254Z,7.00
2019-01-14T04:13:49.710Z,7.00
2019-01-14T04:16:19.096Z,7.00
2019-01-14T04:18:48.491Z,6.90
2019-01-14T04:21:17.834Z,6.90
2019-01-14T04:23:47.135Z,6.90
2019-01-14T04:26:18.244Z,6.90
2019-01-14T04:28:47.657Z,6.90
2019-01-14T04:31:17.043Z,6.90
2019-01-14T04:33:46.457Z,6.90
2019-01-14T04:36:15.836Z,6.90
2019-01-14T04:38:45.582Z,6.90
2019-01-14T04:41:14.859Z,6.90
2019-01-14T04:43:44.251Z,6.90
2019-01-14T04:46:13.605Z,6.90
2019-01-14T04:48:42.952Z,6.80
2019-01-14T04:51:12.325Z,6.80
2019-01-14T04:53:41.722Z,6.80
2019-01-14T04:56:11.113Z,6.80
2019-01-14T04:58:40.497Z,6.70
2019-01-14T05:01:09.875Z,6.80
2019-01-14T05:03:39.309Z,6.80
2019-01-14T05:06:08.685Z,6.80
2019-01-14T05:08:38.105Z,6.80
2019-01-14T05:11:07.578Z,6.80
2019-01-14T05:13:36.942Z,6.80
2019-01-14T05:16:06.296Z,6.80
2019-01-14T05:18:35.784Z,6.80
2019-01-14T05:21:05.197Z,6.80
2019-01-14T05:23:34.552Z,6.70
2019-01-14T05:26:03.995Z,6.70
2019-01-14T05:28:33.474Z,6.70
2019-01-14T05:31:02.821Z,6.70
2019-01-14T05:33:32.336Z,6.70
2019-01-14T05:36:01.633Z,6.70
2019-01-14T05:38:31.033Z,6.70
2019-01-14T05:41:00.433Z,6.70
2019-01-14T05:43:29.783Z,6.70
2019-01-14T05:45:59.147Z,6.70
2019-01-14T05:48:28.549Z,6.70
2019-01-14T05:50:58.039Z,6.70
2019-01-14T05:53:27.429Z,6.70
2019-01-14T05:55:56.745Z,6.70
2019-01-14T05:58:26.093Z,6.70
2019-01-14T06:00:55.459Z,6.70
2019-01-14T06:03:24.879Z,6.70
2019-01-14T06:05:54.292Z,6.70
2019-01-14T06:08:23.720Z,6.70
2019-01-14T06:10:53.038Z,6.60
2019-01-14T06:13:22.474Z,6.70
2019-01-14T06:15:51.860Z,6.70
2019-01-14T06:18:21.327Z,6.60
2019-01-14T06:20:50.747Z,6.60
2019-01-14T06:23:20.099Z,6.60
2019-01-14T06:25:49.534Z,6.60
2019-01-14T06:28:18.928Z,6.60
2019-01-14T06:30:48.361Z,6.60
2019-01-14T06:33:18.766Z,6.60
2019-01-14T06:35:48.149Z,6.60
2019-01-14T06:38:17.529Z,6.60
2019-01-14T06:40:46.921Z,6.60
2019-01-14T06:43:16.366Z,6.60
2019-01-14T06:45:45.755Z,6.70
2019-01-14T06:48:15.128Z,6.70
2019-01-14T06:50:44.498Z,6.70
2019-01-14T06:53:13.882Z,6.60
2019-01-14T06:55:43.322Z,6.60
2019-01-14T06:58:12.679Z,6.60
2019-01-14T07:00:42.112Z,6.60
2019-01-14T07:03:11.521Z,6.60
2019-01-14T07:05:40.889Z,6.60
2019-01-14T07:08:10.303Z,6.60
2019-01-14T07:10:39.761Z,6.60
2019-01-14T07:13:09.160Z,6.60
2019-01-14T07:15:38.641Z,6.60
2019-01-14T07:18:09.319Z,6.40
2019-01-14T07:20:38.712Z,6.40
2019-01-14T07:23:08.284Z,6.40
2019-01-14T07:25:37.941Z,6.30
2019-01-14T07:28:07.230Z,6.10
2019-01-14T07:30:36.591Z,6.00
2019-01-14T07:33:05.872Z,6.00
2019-01-14T07:35:35.214Z,6.00
2019-01-14T07:38:06.814Z,6.00
2019-01-14T07:40:35.790Z,5.90
2019-01-14T07:43:05.180Z,6.00
2019-01-14T07:45:34.552Z,5.90
2019-01-14T07:48:03.867Z,5.90
2019-01-14T07:50:35.315Z,5.90
2019-01-14T07:53:05.808Z,5.90
2019-01-14T07:55:35.222Z,5.90
2019-01-14T07:58:04.775Z,5.80
2019-01-14T08:00:34.209Z,5.80
2019-01-14T08:03:03.517Z,5.80
2019-01-14T08:05:32.868Z,5.80
2019-01-14T08:08:03.785Z,5.80
2019-01-14T08:10:33.167Z,5.80
2019-01-14T08:13:02.585Z,5.90
2019-01-14T08:15:31.962Z,5.90
2019-01-14T08:18:01.343Z,5.90
2019-01-14T08:20:30.667Z,6.00
2019-01-14T08:22:59.952Z,6.00
2019-01-14T08:25:29.263Z,6.00
2019-01-14T08:27:58.620Z,6.00
2019-01-14T08:30:27.916Z,6.10
2019-01-14T08:32:57.398Z,6.10
2019-01-14T08:35:26.872Z,6.10
2019-01-14T08:37:56.248Z,6.20
2019-01-14T08:40:25.663Z,6.20
2019-01-14T08:42:55.083Z,6.20
2019-01-14T08:45:24.539Z,6.30
2019-01-14T08:47:53.944Z,6.30
2019-01-14T08:50:23.362Z,6.30
2019-01-14T08:52:52.945Z,6.30
2019-01-14T08:55:22.359Z,6.20
2019-01-14T08:57:54.617Z,6.20
2019-01-14T09:00:23.712Z,6.10
2019-01-14T09:02:53.150Z,6.10
2019-01-14T09:05:22.633Z,6.10
2019-01-14T09:07:52.055Z,6.00
2019-01-14T09:10:24.066Z,6.00
2019-01-14T09:12:53.355Z,6.00
2019-01-14T09:15:22.672Z,6.00
2019-01-14T09:17:52.112Z,6.10
2019-01-14T09:20:23.428Z,6.20
2019-01-14T09:22:52.763Z,6.20
2019-01-14T09:25:22.173Z,6.30
2019-01-14T09:27:51.655Z,6.40
2019-01-14T09:30:22.936Z,6.50
2019-01-14T09:32:52.267Z,6.50
2019-01-14T09:35:21.773Z,6.60
2019-01-14T09:37:51.386Z,6.60
2019-01-14T09:40:22.632Z,6.50
2019-01-14T09:42:52.098Z,6.30
2019-01-14T09:45:21.499Z,6.20
2019-01-14T09:47:50.831Z,6.10
2019-01-14T09:50:20.241Z,5.90
2019-01-14T09:52:49.634Z,5.90
2019-01-14T09:55:20.010Z,6.00
2019-01-14T09:57:49.322Z,6.10
2019-01-14T10:00:18.667Z,6.10
2019-01-14T10:02:48.212Z,6.20
2019-01-14T10:05:19.146Z,6.20
2019-01-14T10:07:48.644Z,6.40
2019-01-14T10:10:18.819Z,6.60
2019-01-14T10:12:48.248Z,6.80
2019-01-14T10:15:25.026Z,7.00
2019-01-14T10:18:12.489Z,7.10
2019-01-14T10:20:41.860Z,7.00
2019-01-14T10:23:11.292Z,7.10
2019-01-14T10:25:40.741Z,7.10
2019-01-14T10:28:10.103Z,7.10
2019-01-14T10:30:39.646Z,7.10
2019-01-14T10:33:08.950Z,6.90
2019-01-14T10:35:38.392Z,6.90
2019-01-14T10:38:07.780Z,6.90
2019-01-14T10:40:37.599Z,6.90
2019-01-14T10:43:07.056Z,6.90
2019-01-14T10:45:36.482Z,7.00
2019-01-14T10:48:06.492Z,7.00
2019-01-14T10:50:35.877Z,7.00
2019-01-14T10:53:05.260Z,7.10
2019-01-14T10:55:34.663Z,7.10
2019-01-14T10:58:04.118Z,7.10
2019-01-14T11:00:33.535Z,7.10
2019-01-14T11:03:03.252Z,7.20
2019-01-14T11:05:32.851Z,7.20
2019-01-14T11:08:02.361Z,7.20
2019-01-14T11:10:31.745Z,7.30
2019-01-14T11:13:01.142Z,7.40
2019-01-14T11:15:30.540Z,7.30
2019-01-14T11:17:59.858Z,7.40
2019-01-14T11:20:30.833Z,7.50
2019-01-14T11:23:00.984Z,7.50
2019-01-14T11:25:30.528Z,7.60
2019-01-14T11:28:00.045Z,7.70
2019-01-14T11:30:31.500Z,7.70
2019-01-14T11:33:01.000Z,7.60
2019-01-14T11:35:33.608Z,7.80
2019-01-14T11:38:03.008Z,7.80
2019-01-14T11:40:42.170Z,7.80
2019-01-14T11:47:21.021Z,7.90
2019-01-14T11:49:50.429Z,8.30
2019-01-14T11:52:19.721Z,8.20
2019-01-14T11:54:49.111Z,8.10
2019-01-14T11:57:18.430Z,8.00
2019-01-14T11:59:47.773Z,8.00
2019-01-14T12:02:19.062Z,8.10
2019-01-14T12:04:48.142Z,8.00
2019-01-14T12:07:17.450Z,7.80
2019-01-14T12:09:46.866Z,7.60
2019-01-14T12:12:16.214Z,7.30
2019-01-14T12:14:45.560Z,7.20
2019-01-14T12:17:14.820Z,7.00
2019-01-14T12:19:44.130Z,6.90
2019-01-14T12:22:13.526Z,7.00
2019-01-14T12:24:42.891Z,7.10
2019-01-14T12:27:12.173Z,7.10
2019-01-14T12:29:41.616Z,7.10
2019-01-14T12:32:11.066Z,7.20
2019-01-14T12:34:41.753Z,7.20
2019-01-14T12:37:11.119Z,7.30
2019-01-14T12:39:43.565Z,7.30
2019-01-14T12:42:12.950Z,7.40
2019-01-14T12:44:42.708Z,7.50
2019-01-14T12:47:12.024Z,7.50
2019-01-14T12:49:41.416Z,7.50
2019-01-14T12:52:10.870Z,7.50
2019-01-14T12:54:40.248Z,7.50
2019-01-14T12:57:09.631Z,7.50
2019-01-14T12:59:38.994Z,7.60
2019-01-14T13:02:08.343Z,7.50
2019-01-14T13:04:37.744Z,7.50
2019-01-14T13:07:07.208Z,7.50
2019-01-14T13:09:36.629Z,7.60
2019-01-14T13:12:06.532Z,7.90
2019-01-14T13:14:35.911Z,8.10
2019-01-14T13:17:05.399Z,8.20
2019-01-14T13:19:34.796Z,8.10
2019-01-14T13:22:04.209Z,7.80
2019-01-14T13:24:33.677Z,7.70
2019-01-14T13:27:03.054Z,7.60
2019-01-14T13:29:32.476Z,7.10
2019-01-14T13:32:01.920Z,6.90
2019-01-14T13:34:31.334Z,6.70
2019-01-14T13:37:00.694Z,6.70
2019-01-14T13:39:33.981Z,6.60
2019-01-14T13:42:01.130Z,6.60
2019-01-14T13:44:30.575Z,6.60
2019-01-14T13:46:59.984Z,6.60
2019-01-14T13:49:29.425Z,6.50
2019-01-14T13:52:00.108Z,6.50
2019-01-14T13:54:29.423Z,6.60
2019-01-14T13:56:58.739Z,6.60
2019-01-14T13:59:28.154Z,6.60
2019-01-14T14:01:57.483Z,6.70
2019-01-14T14:04:26.846Z,6.60
2019-01-14T14:06:56.245Z,6.60
2019-01-14T14:09:25.719Z,6.50
2019-01-14T14:11:55.703Z,6.50
2019-01-14T14:14:25.153Z,6.50
2019-01-14T14:16:54.483Z,6.50
2019-01-14T14:19:23.882Z,6.40
2019-01-14T14:21:53.289Z,6.40
2019-01-14T14:24:22.558Z,6.20
2019-01-14T14:26:51.970Z,6.30
2019-01-14T14:29:21.238Z,6.40
2019-01-14T14:31:50.619Z,6.40
2019-01-14T14:34:20.008Z,6.50
2019-01-14T14:36:49.376Z,6.40
2019-01-14T14:39:18.718Z,6.40
2019-01-14T14:41:48.126Z,6.50
2019-01-14T14:44:17.495Z,6.50
2019-01-14T14:46:46.960Z,6.50
2019-01-14T14:49:16.336Z,6.40
2019-01-14T14:51:45.751Z,6.30
2019-01-14T14:54:15.129Z,6.30
2019-01-14T14:56:44.524Z,6.20
2019-01-14T14:59:13.900Z,6.30
2019-01-14T15:01:43.266Z,6.30
2019-01-14T15:04:12.626Z,6.30
2019-01-14T15:06:42.018Z,6.20
2019-01-14T15:09:11.414Z,6.10
2019-01-14T15:11:40.760Z,6.10
2019-01-14T15:14:10.096Z,6.20
2019-01-14T15:16:39.471Z,6.20
2019-01-14T15:19:08.863Z,6.30
2019-01-14T15:21:38.296Z,6.40
2019-01-14T15:24:07.663Z,6.40
2019-01-14T15:26:37.031Z,6.40
2019-01-14T15:29:06.381Z,6.40
2019-01-14T15:31:35.727Z,6.40
2019-01-14T15:34:05.315Z,6.30
2019-01-14T15:36:34.689Z,6.30
2019-01-14T15:39:07.557Z,6.20
2019-01-14T15:41:36.833Z,6.10
2019-01-14T15:44:06.385Z,6.10
2019-01-14T15:46:35.798Z,6.10
2019-01-14T15:49:05.284Z,6.00
2019-01-14T15:51:34.608Z,6.00
2019-01-14T15:54:04.064Z,5.90
2019-01-14T15:56:33.397Z,5.90
2019-01-14T15:59:02.843Z,5.90
2019-01-14T16:01:32.310Z,5.90
2019-01-14T16:04:01.759Z,5.90
2019-01-14T16:06:31.190Z,5.90
2019-01-14T16:09:00.630Z,5.70
2019-01-14T16:11:29.952Z,5.70
2019-01-14T16:13:59.306Z,5.60
2019-01-14T16:16:28.719Z,5.60
2019-01-14T16:18:58.133Z,5.50
2019-01-14T16:21:27.438Z,5.50
2019-01-14T16:23:56.801Z,5.50
2019-01-14T16:26:26.286Z,5.50
2019-01-14T16:28:55.748Z,5.60
2019-01-14T16:31:28.218Z,5.60
2019-01-14T16:33:57.601Z,5.60
2019-01-14T16:36:26.904Z,5.70
2019-01-14T16:38:56.352Z,5.70
2019-01-14T16:41:25.712Z,5.70
2019-01-14T16:43:55.118Z,5.30
2019-01-14T16:46:25.530Z,5.20
2019-01-14T16:48:55.225Z,4.90
2019-01-14T16:51:24.678Z,4.80
2019-01-14T16:53:54.076Z,4.70
2019-01-14T16:56:23.456Z,4.60
2019-01-14T16:58:52.958Z,4.50
2019-01-14T17:01:22.332Z,4.50
2019-01-14T17:03:51.702Z,4.40
2019-01-14T17:06:21.101Z,4.40
2019-01-14T17:08:50.531Z,4.40
2019-01-14T17:11:19.957Z,4.40
2019-01-14T17:13:49.347Z,4.40
2019-01-14T17:16:18.767Z,4.40
2019-01-14T17:18:48.163Z,4.40
2019-01-14T17:21:17.578Z,4.30
2019-01-14T17:23:46.976Z,4.30
2019-01-14T17:26:16.376Z,4.30
2019-01-14T17:28:45.805Z,4.30
2019-01-14T17:31:15.184Z,4.30
2019-01-14T17:33:44.716Z,4.30
2019-01-14T17:36:15.551Z,4.30
2019-01-14T17:38:45.008Z,4.30
2019-01-14T17:41:14.332Z,4.30
2019-01-14T17:43:43.834Z,4.30
2019-01-14T17:46:13.237Z,4.30
2019-01-14T17:48:42.578Z,4.30
2019-01-14T17:51:11.981Z,4.40
2019-01-14T17:53:41.381Z,4.40
2019-01-14T17:56:10.838Z,4.50
2019-01-14T17:58:40.286Z,4.40
2019-01-14T18:01:09.764Z,4.40
2019-01-14T18:03:39.169Z,4.40
2019-01-14T18:06:08.548Z,4.40
2019-01-14T18:08:37.900Z,4.20
2019-01-14T18:11:07.322Z,4.20
2019-01-14T18:13:36.601Z,4.10
2019-01-14T18:16:05.995Z,4.10
2019-01-14T18:18:35.313Z,4.10
2019-01-14T18:21:06.544Z,4.10
2019-01-14T18:23:35.815Z,4.00
2019-01-14T18:26:05.225Z,3.90
2019-01-14T18:28:34.640Z,3.90
2019-01-14T18:31:07.882Z,3.90
2019-01-14T18:33:37.219Z,3.90
2019-01-14T18:36:06.599Z,3.90
2019-01-14T18:38:36.037Z,3.90
2019-01-14T18:41:05.551Z,3.90
2019-01-14T18:43:34.979Z,3.90
2019-01-14T18:46:05.022Z,3.90
2019-01-14T18:48:34.439Z,3.90
2019-01-14T18:51:04.108Z,3.90
2019-01-14T18:53:33.511Z,3.90
2019-01-14T18:56:03.060Z,3.90
2019-01-14T18:58:32.437Z,4.00
2019-01-14T19:01:01.912Z,4.00
2019-01-14T19:03:31.295Z,4.00
2019-01-14T19:06:00.726Z,4.10
2019-01-14T19:08:30.142Z,4.10
2019-01-14T19:10:59.646Z,4.20
2019-01-14T19:13:29.070Z,4.30
2019-01-14T19:16:00.793Z,4.30
2019-01-14T19:18:30.184Z,4.40
2019-01-14T19:20:59.551Z,4.40
2019-01-14T19:23:28.946Z,4.40
2019-01-14T19:25:58.324Z,4.20
2019-01-14T19:28:27.685Z,4.20
2019-01-14T19:30:57.117Z,4.20
2019-01-14T19:33:26.616Z,4.20
2019-01-14T19:35:56.279Z,4.20
2019-01-14T19:38:25.862Z,4.10
2019-01-14T19:41:01.604Z,4.10
2019-01-14T19:43:26.734Z,4.00
2019-01-14T19:45:56.192Z,4.00
2019-01-14T19:48:27.805Z,4.00
2019-01-14T19:50:57.196Z,4.00
2019-01-14T19:53:26.707Z,3.90
2019-01-14T19:55:56.157Z,3.90
2019-01-14T19:58:25.597Z,3.90
2019-01-14T20:00:55.123Z,3.80
2019-01-14T20:03:24.520Z,3.80
2019-01-14T20:05:54.058Z,3.90
2019-01-14T20:08:23.746Z,3.90
2019-01-14T20:10:55.275Z,3.90
2019-01-14T20:13:24.651Z,4.00
2019-01-14T20:15:55.951Z,4.00
2019-01-14T20:18:25.387Z,4.10
2019-01-14T20:20:59.845Z,4.10
2019-01-14T20:23:29.468Z,4.10
2019-01-14T20:25:59.006Z,4.10
2019-01-14T20:28:31.714Z,4.10
2019-01-14T20:31:01.222Z,4.00
2019-01-14T20:33:30.640Z,3.90
2019-01-14T20:36:00.073Z,3.90
2019-01-14T20:38:29.585Z,3.80
2019-01-14T20:40:59.053Z,3.70
2019-01-14T20:43:28.605Z,3.60
2019-01-14T20:45:58.161Z,3.60
2019-01-14T20:48:27.605Z,3.60
2019-01-14T20:50:57.083Z,3.60
2019-01-14T20:53:26.631Z,3.60
2019-01-14T20:55:56.095Z,3.60
2019-01-14T20:58:25.591Z,3.60
2019-01-14T21:00:55.081Z,3.60
2019-01-14T21:03:24.505Z,3.60
2019-01-14T21:05:53.846Z,3.60
2019-01-14T21:08:23.290Z,3.60
2019-01-14T21:10:52.691Z,3.60
2019-01-14T21:13:22.096Z,3.60
2019-01-14T21:15:51.518Z,3.60
2019-01-14T21:18:20.876Z,3.60
2019-01-14T21:20:50.248Z,3.60
2019-01-14T21:23:19.710Z,3.60
2019-01-14T21:25:50.826Z,3.60
2019-01-14T21:28:20.156Z,3.60
2019-01-14T21:30:49.445Z,3.60
2019-01-14T21:33:20.106Z,3.50
2019-01-14T21:35:49.517Z,3.50
2019-01-14T21:38:18.995Z,3.50
2019-01-14T21:40:48.385Z,3.50
2019-01-14T21:43:17.830Z,3.50
2019-01-14T21:45:47.281Z,3.40
2019-01-14T21:48:17.252Z,3.40
2019-01-14T21:50:46.962Z,3.40
2019-01-14T21:53:16.359Z,3.40
2019-01-14T21:55:45.815Z,3.30
2019-01-14T21:58:15.248Z,3.30
2019-01-14T22:00:44.626Z,3.30
2019-01-14T22:03:15.596Z,3.20
2019-01-14T22:05:45.204Z,3.20
2019-01-14T22:08:14.551Z,3.20
2019-01-14T22:10:43.942Z,3.10
2019-01-14T22:13:13.382Z,3.10
2019-01-14T22:15:42.784Z,3.00
2019-01-14T22:18:12.192Z,2.90
2019-01-14T22:20:41.573Z,2.80
2019-01-14T22:23:10.955Z,2.70
2019-01-14T22:25:40.349Z,2.60
2019-01-14T22:28:09.678Z,2.50
2019-01-14T22:30:39.051Z,2.40
2019-01-14T22:33:08.409Z,2.40
2019-01-14T22:35:37.809Z,2.40
2019-01-14T22:38:07.229Z,2.30
2019-01-14T22:40:36.644Z,2.30
2019-01-14T22:43:06.042Z,2.20
2019-01-14T22:45:35.377Z,2.20
2019-01-14T22:48:04.860Z,2.20
2019-01-14T22:50:34.254Z,2.10
2019-01-14T22:53:03.678Z,2.10
2019-01-14T22:55:33.127Z,2.10
2019-01-14T22:58:02.538Z,2.10
2019-01-14T23:01:18.755Z,2.00
2019-01-14T23:03:50.343Z,1.90
2019-01-14T23:06:19.877Z,1.90
2019-01-14T23:08:49.279Z,1.90
2019-01-14T23:11:18.863Z,1.90
2019-01-14T23:13:48.273Z,1.80
2019-01-14T23:16:17.659Z,1.80
2019-01-14T23:18:46.919Z,1.80
2019-01-14T23:21:16.245Z,1.70
2019-01-14T23:23:45.705Z,1.70
2019-01-14T23:26:15.080Z,1.70
2019-01-14T23:28:44.386Z,1.70
2019-01-14T23:31:13.806Z,1.70
2019-01-14T23:33:43.184Z,1.70
2019-01-14T23:36:12.566Z,1.60
2019-01-14T23:38:42.028Z,1.70
2019-01-14T23:41:11.438Z,1.60
2019-01-14T23:43:40.852Z,1.60
2019-01-14T23:46:10.238Z,1.50
2019-01-14T23:48:39.663Z,1.60
2019-01-14T23:51:09.058Z,1.60
2019-01-14T23:53:38.432Z,1.60
2019-01-14T23:56:07.875Z,1.60
2019-01-14T23:58:37.420Z,1.50
